Data for 08/16/2005

Time Sea-Level Adjusted Pressure Absolute Pressure Temperature Relative Humidity Dew Point   
(mb) (inHg) (mb) (inHg) (C) (F) (%) (C) (F)
00:05 1019 30.09 848 25.04 20.4 68.6 33 3.6 38.4
00:10 1019 30.09 848 25.04 20.4 68.7 33 3.6 38.4
00:15 1019 30.09 848 25.04 20.4 68.7 33 3.6 38.5
00:20 1019 30.09 848 25.04 20.3 68.6 33 3.6 38.5
00:25 1019 30.09 848 25.04 20.3 68.6 33 3.5 38.3
00:30 1019 30.09 848 25.04 20.4 68.7 32 3.5 38.2
00:35 1019 30.09 848 25.04 20.3 68.6 32 3.4 38.2
00:40 1019 30.09 848 25.04 20.3 68.6 32 3.4 38.2
00:45 1019 30.09 848 25.04 20.2 68.3 33 3.4 38.2
00:50 1019 30.09 848 25.04 20 68 32 3.2 37.7
00:55 1019 30.09 848 25.04 20.1 68.1 32 3.2 37.7
01:00 1019 30.09 848 25.04 20 68 32 3.1 37.6
01:05 1019 30.09 848 25.04 19.9 67.9 32 3.1 37.6
01:10 1019 30.09 848 25.04 19.8 67.7 33 3 37.5
01:15 1019 30.09 848 25.04 19.6 67.3 33 3.1 37.6
01:20 1019 30.09 848 25.04 19.5 67.1 33 3.1 37.6
01:25 1019 30.09 848 25.04 19.5 67 33 3 37.5
01:30 1019 30.09 848 25.04 19.2 66.6 33 2.9 37.2
01:35 1019 30.09 848 25.04 19.3 66.8 33 2.7 36.9
01:40 1019 30.09 848 25.04 19.4 66.9 33 2.7 36.8
01:45 1019 30.09 848 25.04 19.5 67 32 2.6 36.7
01:50 1019 30.09 848 25.04 19.6 67.2 32 2.5 36.5
01:55 1019 30.09 848 25.04 19.6 67.2 32 2.7 36.9
02:00 1019 30.09 848 25.04 19.5 67 32 2.7 36.8
02:05 1019 30.09 848 25.04 19.4 66.8 33 2.7 36.8
02:10 1019 30.09 848 25.04 19.3 66.7 33 2.7 36.9
02:15 1019 30.09 848 25.04 19.2 66.6 33 2.7 36.8
02:20 1019 30.09 848 25.04 19.2 66.5 33 2.7 36.8
02:25 1019 30.09 848 25.04 19.1 66.5 33 2.8 37
02:30 1019 30.09 848 25.04 19 66.2 34 2.8 37
02:35 1019 30.09 848 25.04 18.8 65.9 34 2.8 37.1
02:40 1019 30.09 848 25.04 18.6 65.5 35 2.8 37.1
02:45 1019 30.09 848 25.04 18.4 65.1 35 2.9 37.3
02:50 1019 30.09 848 25.04 18 64.3 38 3.4 38.1
02:55 1019 30.09 848 25.04 17.5 63.5 39 3.5 38.2
03:00 1019 30.09 848 25.04 17.1 62.7 40 3.6 38.5
03:05 1019 30.09 848 25.04 16.7 62.1 41 3.5 38.2
03:10 1019 30.09 848 25.04 16.7 62.1 40 3.3 38
03:15 1019 30.09 848 25.04 16.8 62.2 41 3.4 38.1
03:20 1019 30.09 848 25.04 16.7 62 41 3.4 38.1
03:25 1019 30.09 848 25.04 16.6 61.8 41 3.5 38.3
03:30 1019 30.09 848 25.04 16.7 62 41 3.4 38.1
03:35 1019 30.09 848 25.04 17 62.5 40 3.3 38
03:40 1019 30.09 848 25.04 17 62.6 41 3.7 38.7
03:45 1019 30.09 848 25.04 16.8 62.3 41 3.5 38.3
03:50 1019 30.09 848 25.04 17.1 62.8 40 3.4 38.1
03:55 1019 30.09 848 25.04 17.1 62.7 42 4.1 39.4
04:00 1019 30.09 849 25.07 15.9 60.6 46 4.5 40
04:05 1019 30.09 849 25.07 15.2 59.4 46 3.9 39
04:10 1019 30.09 849 25.07 15.3 59.5 46 3.8 38.8
04:15 1019 30.09 849 25.07 15.6 60 44 3.5 38.4
04:20 1019 30.09 849 25.07 15.7 60.3 44 3.5 38.3
04:25 1019 30.09 849 25.07 15.8 60.4 45 3.8 38.9
04:30 1019 30.09 849 25.07 15.4 59.7 45 3.7 38.6
04:35 1019 30.09 849 25.07 15.1 59.3 45 3.2 37.8
04:40 1019 30.09 849 25.07 14.9 58.8 45 3.1 37.6
04:45 1019 30.09 849 25.07 15.1 59.2 45 3.3 37.9
04:50 1019 30.09 849 25.07 14.8 58.6 47 3.7 38.6
04:55 1019 30.09 849 25.07 14.6 58.2 48 3.6 38.5
05:00 1019 30.09 849 25.07 14.5 58.1 47 3.4 38.1
05:05 1019 30.09 849 25.07 14.3 57.7 47 3.1 37.6
05:10 1019 30.09 848 25.04 14.1 57.3 48 3.2 37.7
05:15 1019 30.09 848 25.04 13.7 56.7 48 3 37.3
05:20 1019 30.09 848 25.04 13.8 56.8 47 2.8 37
05:25 1019 30.09 848 25.04 13.7 56.7 49 3.2 37.8
05:30 1019 30.09 848 25.04 13.4 56.1 47 2.5 36.5
05:35 1019 30.09 849 25.07 13.5 56.2 49 3 37.3
05:40 1019 30.09 849 25.07 13.6 56.4 48 2.8 37
05:45 1019 30.09 849 25.07 13.9 56.9 47 2.9 37.3
05:50 1019 30.09 849 25.07 13.9 57 48 3.1 37.5
05:55 1019 30.09 849 25.07 13.8 56.9 48 3.1 37.6
06:00 1019 30.09 849 25.07 13.5 56.2 50 3.2 37.8
06:05 1019 30.09 849 25.07 13.2 55.8 50 3 37.5
06:10 1019 30.09 849 25.07 13 55.5 50 3 37.4
06:15 1019 30.09 849 25.07 13 55.3 50 3 37.4
06:20 1019 30.09 849 25.07 13.1 55.6 50 2.9 37.2
06:25 1019 30.09 849 25.07 13.2 55.8 49 2.9 37.2
06:30 1020 30.12 849 25.07 13.2 55.8 49 2.8 37.1
06:35 1020 30.12 849 25.07 12.9 55.2 50 2.8 37.1
06:40 1020 30.12 849 25.07 12.3 54.2 52 2.7 36.9
06:45 1020 30.12 849 25.07 12.1 53.7 51 2.4 36.4
06:50 1020 30.12 849 25.07 11.7 53.1 51 2.1 35.7
06:55 1020 30.12 849 25.07 11.7 53 49 1.5 34.7
07:00 1020 30.12 849 25.07 11.8 53.3 48 1.4 34.4
07:05 1020 30.12 849 25.07 12.2 54 46 1.1 33.9
07:10 1020 30.12 849 25.07 12.6 54.7 46 1.2 34.2
07:15 1020 30.12 849 25.07 13.1 55.6 43 1 33.8
07:20 1020 30.12 849 25.07 13.4 56.1 44 1.4 34.6
07:25 1020 30.12 849 25.07 13.1 55.6 44 1.4 34.4
07:30 1020 30.12 849 25.07 13 55.3 46 1.7 35.1
07:35 1020 30.12 849 25.07 13 55.4 45 1.5 34.8
07:40 1020 30.12 849 25.07 13.5 56.3 43 1.3 34.4
07:45 1020 30.12 849 25.07 14 57.2 45 2.2 35.9
07:50 1020 30.12 849 25.07 14.3 57.8 44 2.4 36.4
07:55 1020 30.12 849 25.07 14.5 58.1 47 3.5 38.2
08:00 1020 30.12 849 25.07 14.5 58 47 3.4 38.2
08:05 1020 30.12 849 25.07 14.3 57.7 48 3.4 38.2
08:10 1020 30.12 849 25.07 14.1 57.4 48 3.3 38
08:15 1020 30.12 849 25.07 14.2 57.5 49 3.8 38.8
08:20 1020 30.12 849 25.07 14.3 57.8 48 3.4 38.2
08:25 1020 30.12 849 25.07 14.7 58.4 48 3.9 39
08:30 1020 30.12 849 25.07 15 58.9 45 3.4 38.1
08:35 1020 30.12 849 25.07 15.2 59.3 53 5.8 42.4
08:40 1020 30.12 849 25.07 15.2 59.4 49 4.8 40.6
08:45 1020 30.12 849 25.07 15.3 59.5 48 4.3 39.8
08:50 1020 30.12 849 25.07 15.3 59.5 45 3.7 38.6
08:55 1020 30.12 849 25.07 15.3 59.5 48 4.3 39.8
09:00 1020 30.12 849 25.07 15.5 60 50 5.1 41.2
09:05 1020 30.12 849 25.07 15.7 60.2 48 4.7 40.4
09:10 1020 30.12 849 25.07 16 60.7 48 5.1 41.2
09:15 1020 30.12 849 25.07 16 60.8 45 4.2 39.5
09:20 1020 30.12 849 25.07 16.4 61.6 39 2.7 36.9
09:25 1020 30.12 849 25.07 17.5 63.5 37 2.9 37.3
09:30 1020 30.12 849 25.07 18.4 65.1 38 3.8 38.9
09:35 1020 30.12 849 25.07 19 66.2 34 2.8 37.1
09:40 1020 30.12 849 25.07 19.1 66.3 33 2.7 36.9
09:45 1020 30.12 849 25.07 19.3 66.7 32 2.2 36
09:50 1020 30.12 849 25.07 19.6 67.3 31 2.3 36.2
09:55 1020 30.12 849 25.07 20.1 68.1 29 1.9 35.3
10:00 1020 30.12 849 25.07 20.5 68.8 29 2.2 35.9
10:05 1020 30.12 849 25.07 20.8 69.4 30 2.8 37
10:10 1020 30.12 849 25.07 20.7 69.3 30 2.7 36.8
10:15 1020 30.12 849 25.07 21.4 70.5 28 2.5 36.6
10:20 1020 30.12 849 25.07 22 71.6 28 2.7 36.9
10:25 1020 30.12 849 25.07 21.6 70.8 28 2.5 36.6
10:30 1020 30.12 849 25.07 21.2 70.2 31 3.5 38.3
10:35 1019 30.09 849 25.07 20.8 69.5 31 3.5 38.2
10:40 1019 30.09 849 25.07 21.4 70.5 29 2.8 37.1
10:45 1019 30.09 849 25.07 21.2 70.1 30 3.3 38
10:50 1019 30.09 849 25.07 21.4 70.5 30 3.3 37.9
10:55 1019 30.09 849 25.07 21.9 71.3 29 3.4 38.2
11:00 1019 30.09 848 25.04 21.9 71.3 31 4 39.2
11:05 1019 30.09 848 25.04 22.1 71.8 29 3.4 38.2
11:10 1019 30.09 848 25.04 22.6 72.7 28 3.3 37.9
11:15 1019 30.09 848 25.04 22.9 73.2 28 3.5 38.3
11:20 1019 30.09 848 25.04 23.3 73.9 28 3.9 39
11:25 1019 30.09 848 25.04 23.5 74.4 26 3.1 37.7
11:30 1019 30.09 848 25.04 23.8 74.8 25 3 37.5
11:35 1019 30.09 848 25.04 23.4 74 27 3.5 38.4
11:40 1019 30.09 848 25.04 22.9 73.2 28 3.6 38.5
11:45 1019 30.09 848 25.04 22.9 73.2 28 3.6 38.5
11:50 1019 30.09 848 25.04 23 73.4 28 3.6 38.4
11:55 1019 30.09 848 25.04 23.5 74.3 26 3 37.4
12:00 1019 30.09 848 25.04 23.8 74.9 25 2.8 37.1
12:05 1019 30.09 848 25.04 24.2 75.5 27 4 39.2
12:10 1019 30.09 848 25.04 24.6 76.3 24 3 37.4
12:15 1019 30.09 848 25.04 24.5 76.2 24 2.7 36.8
12:20 1019 30.09 848 25.04 24.5 76 23 2.3 36.2
12:25 1019 30.09 848 25.04 25.1 77.1 23 2.6 36.7
12:30 1019 30.09 848 25.04 25.8 78.4 21 2.2 35.9
12:35 1019 30.09 848 25.04 26.4 79.4 22 3.2 37.8
12:40 1019 30.09 848 25.04 26.1 78.9 24 4.3 39.7
12:45 1019 30.09 848 25.04 25.4 77.8 24 3.6 38.6
12:50 1019 30.09 848 25.04 25.1 77.1 25 3.9 39
12:55 1019 30.09 848 25.04 24.7 76.5 25 3.5 38.3
13:00 1019 30.09 848 25.04 24.4 76 25 3.4 38.1
13:05 1019 30.09 848 25.04 24.9 76.7 24 3.1 37.5
13:10 1019 30.09 848 25.04 25.9 78.5 23 3.7 38.6
13:15 1018 30.06 848 25.04 26 78.8 24 4.2 39.5
13:20 1018 30.06 848 25.04 25.5 77.9 23 3.2 37.8
13:25 1018 30.06 848 25.04 25 77 24 3.3 38
13:30 1018 30.06 847 25.01 25.6 78.1 23 3 37.5
13:35 1018 30.06 847 25.01 26.7 80 22 3.3 37.9
13:40 1018 30.06 847 25.01 27 80.6 21 2.9 37.2
13:45 1018 30.06 847 25.01 27.3 81.2 22 4.1 39.4
13:50 1018 30.06 847 25.01 27.2 81 19 2.3 36.1
13:55 1018 30.06 847 25.01 27.6 81.7 18 1.5 34.6
14:00 1018 30.06 847 25.01 27.8 82 18 1.8 35.3
14:05 1018 30.06 847 25.01 27.4 81.3 16 -0.5 31.1
14:10 1018 30.06 847 25.01 27.1 80.7 18 0.8 33.4
14:15 1018 30.06 847 25.01 27.2 81 18 1.3 34.3
14:20 1018 30.06 847 25.01 27.4 81.4 19 2.4 36.3
14:25 1018 30.06 847 25.01 27.5 81.5 20 2.7 36.8
14:30 1018 30.06 847 25.01 27.1 80.7 21 3 37.3
14:35 1018 30.06 847 25.01 26.8 80.2 21 2.9 37.2
14:40 1018 30.06 847 25.01 27.4 81.3 21 3.2 37.7
14:45 1018 30.06 847 25.01 27.5 81.6 21 3.4 38.2
14:50 1018 30.06 847 25.01 27.6 81.7 22 4.4 39.9
14:55 1018 30.06 847 25.01 27.6 81.7 20 2.7 36.8
15:00 1018 30.06 847 25.01 27.7 81.9 20 2.9 37.2
15:05 1018 30.06 847 25.01 28.1 82.6 20 3.6 38.5
15:10 1018 30.06 847 25.01 27.7 81.9 20 3 37.3
15:15 1017 30.03 847 25.01 27.7 81.8 20 3.1 37.6
15:20 1017 30.03 847 25.01 27.6 81.7 18 1.6 34.8
15:25 1017 30.03 847 25.01 27.8 82.1 20 2.9 37.1
15:30 1017 30.03 847 25.01 28.2 82.7 19 2.8 37
15:35 1017 30.03 847 25.01 28.9 84 20 3.7 38.7
15:40 1017 30.03 847 25.01 29.1 84.3 19 3.3 37.9
15:45 1017 30.03 846 24.98 28.8 83.8 18 2.6 36.7
15:50 1017 30.03 846 24.98 28.4 83 18 2.3 36.1
15:55 1017 30.03 846 24.98 28 82.4 21 3.8 38.8
16:00 1017 30.03 846 24.98 27.9 82.3 21 4.1 39.4
16:05 1017 30.03 846 24.98 28 82.4 20 3.2 37.7
16:10 1017 30.03 846 24.98 28.4 83.1 19 3 37.4
16:15 1017 30.03 846 24.98 28 82.4 18 1.9 35.4
16:20 1017 30.03 846 24.98 27.8 82.1 18 2 35.5
16:25 1017 30.03 846 24.98 27.7 81.8 18 1.8 35.2
16:30 1017 30.03 846 24.98 28.1 82.6 17 1.5 34.7
16:35 1017 30.03 846 24.98 28.7 83.7 18 2.3 36.2
16:40 1017 30.03 846 24.98 29.3 84.7 17 1.6 34.9
16:45 1017 30.03 846 24.98 29.5 85 16 1.5 34.8
16:50 1017 30.03 846 24.98 28.6 83.5 17 1.4 34.5
16:55 1017 30.03 846 24.98 29.1 84.4 16 0.9 33.6
17:00 1017 30.03 846 24.98 29.5 85 15 0.4 32.7
17:05 1017 30.03 846 24.98 29.3 84.7 16 1.1 34
17:10 1017 30.03 846 24.98 28.9 84.1 16 1.2 34.1
17:15 1016 30 846 24.98 29.3 84.8 16 1.3 34.4
17:20 1016 30 846 24.98 28.9 84 15 -0.2 31.6
17:25 1016 30 846 24.98 28.8 83.8 16 0.6 33
17:30 1016 30 846 24.98 28.8 83.9 14 -0.7 30.8
17:35 1016 30 846 24.98 29.4 84.9 14 -0.2 31.7
17:40 1016 30 846 24.98 29.5 85.1 12 -2.1 28.3
17:45 1016 30 846 24.98 28.4 83 13 -2.5 27.5
17:50 1016 30 845 24.95 27.9 82.2 13 -2.9 26.8
17:55 1016 30 845 24.95 27.4 81.2 14 -1.8 28.7
18:00 1016 30 845 24.95 27.5 81.6 12 -3.6 25.5
18:05 1016 30 845 24.95 27.5 81.4 13 -2.8 26.9
18:10 1016 30 845 24.95 27.2 81 14 -2.5 27.4
18:15 1016 30 845 24.95 27.2 81 14 -2.7 27.1
18:20 1016 30 845 24.95 27.1 80.8 13 -3.2 26.2
18:25 1016 30 845 24.95 27.1 80.8 13 -2.9 26.8
18:30 1016 30 845 24.95 27.2 81 13 -3.1 26.4
18:35 1016 30 845 24.95 27.6 81.7 14 -2.1 28.3
18:40 1016 30 845 24.95 27.4 81.3 22 4.1 39.4
18:45 1016 30 845 24.95 26.4 79.6 21 2.6 36.6
18:50 1016 30 845 24.95 26.2 79.2 22 2.8 37
18:55 1016 30 845 24.95 26.3 79.4 21 2.5 36.5
19:00 1016 30 845 24.95 26.3 79.4 25 5.2 41.3
19:05 1016 30 845 24.95 26.1 78.9 24 4.1 39.4
19:10 1016 30 845 24.95 25.7 78.3 25 4.6 40.2
19:15 1016 30 845 24.95 25.6 78.1 28 5.8 42.4
19:20 1016 30 845 24.95 25.6 78.1 27 5.3 41.6
19:25 1016 30 845 24.95 25.4 77.8 25 4.3 39.7
19:30 1016 30 845 24.95 25.4 77.8 27 5.2 41.3
19:35 1016 30 845 24.95 25.5 77.8 27 5.5 41.8
19:40 1016 30 845 24.95 25.3 77.5 28 5.5 42
19:45 1016 30 845 24.95 24.9 76.8 32 7.1 44.8
19:50 1016 30 845 24.95 24.3 75.8 33 7.1 44.8
19:55 1016 30 845 24.95 23.7 74.6 33 6.7 44.1
20:00 1016 30 845 24.95 23.3 73.9 38 8.5 47.2
20:05 1016 30 845 24.95 23.4 74 30 5.1 41.1
20:10 1016 30 845 24.95 23.3 74 30 4.8 40.7
20:15 1016 30 845 24.95 23.5 74.2 31 5.7 42.3
20:20 1016 30 845 24.95 23.1 73.6 36 7.5 45.6
20:25 1016 30 845 24.95 22.5 72.5 36 7 44.6
20:30 1016 30 845 24.95 22.3 72.2 34 6 42.8
20:35 1016 30 845 24.95 22.1 71.7 39 7.7 45.9
20:40 1016 30 845 24.95 21.7 71.1 35 5.9 42.6
20:45 1016 30 845 24.95 21.7 71.1 35 5.9 42.5
20:50 1016 30 845 24.95 21.7 71.1 35 5.9 42.6
20:55 1016 30 845 24.95 21.9 71.4 35 5.8 42.4
21:00 1016 30 845 24.95 21.5 70.8 38 6.9 44.3
21:05 1016 30 845 24.95 20.5 68.9 42 7.5 45.5
21:10 1016 30 845 24.95 19.9 67.9 40 6.1 43
21:15 1016 30 845 24.95 20.1 68.2 40 6.2 43.2
21:20 1016 30 845 24.95 20.5 68.9 39 6.1 43.1
21:25 1016 30 845 24.95 20.6 69 37 5.5 41.8
21:30 1016 30 845 24.95 20.9 69.7 31 3.6 38.4
21:35 1016 30 845 24.95 21.4 70.5 32 4 39.3
21:40 1016 30 845 24.95 21.6 70.9 30 3.7 38.6
21:45 1016 30 845 24.95 21.3 70.3 32 4 39.2
21:50 1016 30 845 24.95 21.3 70.3 34 4.9 40.9
21:55 1016 30 845 24.95 21 69.7 33 4.3 39.7
22:00 1016 30 845 24.95 21 69.7 34 4.8 40.6
22:05 1016 30 845 24.95 20.7 69.2 35 4.8 40.7
22:10 1016 30 845 24.95 20.6 69.1 37 5.5 42
22:15 1016 30 845 24.95 20.5 68.9 35 4.8 40.7
22:20 1016 30 845 24.95 20.6 69.1 36 5 41.1
22:25 1016 30 845 24.95 20.5 68.9 35 4.7 40.4
22:30 1016 30 845 24.95 20.3 68.5 38 5.8 42.4
22:35 1016 30 845 24.95 19.8 67.7 39 5.5 41.9
22:40 1016 30 845 24.95 19.6 67.2 39 5.2 41.4
22:45 1016 30 845 24.95 19.6 67.3 38 5.2 41.4
22:50 1016 30 845 24.95 19.7 67.4 38 5.1 41.3
22:55 1016 30 845 24.95 19.6 67.3 37 4.5 40.2
23:00 1016 30 845 24.95 19.9 67.9 36 4.5 40.2
23:05 1016 30 845 24.95 20.2 68.3 36 4.8 40.6
23:10 1016 30 845 24.95 20.3 68.5 36 4.7 40.4
23:15 1016 30 845 24.95 20.1 68.3 36 4.6 40.4
23:20 1016 30 845 24.95 19.9 67.8 38 5.5 41.9
23:25 1016 30 845 24.95 19.8 67.6 37 5 41
23:30 1016 30 845 24.95 18.9 66 47 7.4 45.2
23:35 1016 30 845 24.95 18.3 65 47 7 44.7
23:40 1016 30 845 24.95 18.4 65.2 46 6.7 44
23:45 1016 30 845 24.95 18.2 64.7 49 7.3 45.2
23:50 1016 30 845 24.95 18 64.4 49 7.2 45
23:55 1016 30 845 24.95 17.7 63.9 50 7.2 45
24:00 1016 30 845 24.95 17.6 63.7 50 7.2 45